sensor_id;sensor_type;location;lat;lon;timestamp;temperature;humidity
53454;DHT22;49404;50.472;6.954;2023-07-09T00:02:02;26.70;59.10
53454;DHT22;49404;50.472;6.954;2023-07-09T00:04:28;26.70;58.50
53454;DHT22;49404;50.472;6.954;2023-07-09T00:06:56;26.60;58.40
53454;DHT22;49404;50.472;6.954;2023-07-09T00:09:24;26.60;58.20
53454;DHT22;49404;50.472;6.954;2023-07-09T00:11:50;26.60;58.20
53454;DHT22;49404;50.472;6.954;2023-07-09T00:14:17;26.70;58.30
53454;DHT22;49404;50.472;6.954;2023-07-09T00:16:44;26.60;58.20
53454;DHT22;49404;50.472;6.954;2023-07-09T00:19:17;26.60;58.30
53454;DHT22;49404;50.472;6.954;2023-07-09T00:21:49;26.60;58.30
53454;DHT22;49404;50.472;6.954;2023-07-09T00:24:19;26.60;58.40
53454;DHT22;49404;50.472;6.954;2023-07-09T00:26:45;26.60;58.40
53454;DHT22;49404;50.472;6.954;2023-07-09T00:29:13;26.60;58.40
53454;DHT22;49404;50.472;6.954;2023-07-09T00:31:40;26.60;58.40
53454;DHT22;49404;50.472;6.954;2023-07-09T00:34:14;26.60;58.30
53454;DHT22;49404;50.472;6.954;2023-07-09T00:36:41;26.60;58.20
53454;DHT22;49404;50.472;6.954;2023-07-09T00:39:21;26.60;58.20
53454;DHT22;49404;50.472;6.954;2023-07-09T00:41:49;26.50;58.00
53454;DHT22;49404;50.472;6.954;2023-07-09T00:49:34;26.60;58.10
53454;DHT22;49404;50.472;6.954;2023-07-09T00:52:12;26.60;58.10
53454;DHT22;49404;50.472;6.954;2023-07-09T00:54:44;26.60;58.20
53454;DHT22;49404;50.472;6.954;2023-07-09T00:57:17;26.60;58.20
53454;DHT22;49404;50.472;6.954;2023-07-09T00:59:49;26.60;58.30
53454;DHT22;49404;50.472;6.954;2023-07-09T01:02:16;26.50;58.20
53454;DHT22;49404;50.472;6.954;2023-07-09T01:04:50;26.50;58.20
53454;DHT22;49404;50.472;6.954;2023-07-09T01:07:17;26.50;58.20
53454;DHT22;49404;50.472;6.954;2023-07-09T01:09:45;26.50;58.20
53454;DHT22;49404;50.472;6.954;2023-07-09T01:12:13;26.60;58.90
53454;DHT22;49404;50.472;6.954;2023-07-09T01:14:40;26.60;58.30
53454;DHT22;49404;50.472;6.954;2023-07-09T01:17:08;26.50;58.20
53454;DHT22;49404;50.472;6.954;2023-07-09T01:19:40;26.50;58.10
53454;DHT22;49404;50.472;6.954;2023-07-09T01:22:13;26.50;58.10
53454;DHT22;49404;50.472;6.954;2023-07-09T01:25:01;26.50;58.00
53454;DHT22;49404;50.472;6.954;2023-07-09T01:27:37;26.50;58.00
53454;DHT22;49404;50.472;6.954;2023-07-09T01:30:11;26.50;58.00
53454;DHT22;49404;50.472;6.954;2023-07-09T01:32:38;26.50;58.10
53454;DHT22;49404;50.472;6.954;2023-07-09T01:35:06;26.50;58.00
53454;DHT22;49404;50.472;6.954;2023-07-09T01:37:35;26.50;57.90
53454;DHT22;49404;50.472;6.954;2023-07-09T01:40:04;26.50;57.90
53454;DHT22;49404;50.472;6.954;2023-07-09T01:42:31;26.50;57.80
53454;DHT22;49404;50.472;6.954;2023-07-09T01:44:58;26.50;57.90
53454;DHT22;49404;50.472;6.954;2023-07-09T01:47:24;26.50;57.90
53454;DHT22;49404;50.472;6.954;2023-07-09T01:49:51;26.50;57.80
53454;DHT22;49404;50.472;6.954;2023-07-09T01:52:25;26.40;57.80
53454;DHT22;49404;50.472;6.954;2023-07-09T01:54:53;26.40;57.80
53454;DHT22;49404;50.472;6.954;2023-07-09T01:57:20;26.50;58.40
53454;DHT22;49404;50.472;6.954;2023-07-09T01:59:54;26.40;57.70
53454;DHT22;49404;50.472;6.954;2023-07-09T02:02:21;26.50;57.80
53454;DHT22;49404;50.472;6.954;2023-07-09T02:04:50;26.40;57.80
53454;DHT22;49404;50.472;6.954;2023-07-09T02:07:17;26.50;57.90
53454;DHT22;49404;50.472;6.954;2023-07-09T02:09:44;26.40;57.80
53454;DHT22;49404;50.472;6.954;2023-07-09T02:12:11;26.50;57.90
53454;DHT22;49404;50.472;6.954;2023-07-09T02:14:38;26.40;57.80
53454;DHT22;49404;50.472;6.954;2023-07-09T02:17:04;26.50;57.90
53454;DHT22;49404;50.472;6.954;2023-07-09T02:19:30;26.40;57.90
53454;DHT22;49404;50.472;6.954;2023-07-09T02:21:57;26.40;57.90
53454;DHT22;49404;50.472;6.954;2023-07-09T02:24:23;26.40;57.90
53454;DHT22;49404;50.472;6.954;2023-07-09T02:26:58;26.50;58.00
53454;DHT22;49404;50.472;6.954;2023-07-09T02:29:25;26.50;58.00
53454;DHT22;49404;50.472;6.954;2023-07-09T02:31:54;26.40;57.90
53454;DHT22;49404;50.472;6.954;2023-07-09T02:34:20;26.40;58.00
53454;DHT22;49404;50.472;6.954;2023-07-09T02:36:47;26.40;58.00
53454;DHT22;49404;50.472;6.954;2023-07-09T02:39:13;26.40;58.00
53454;DHT22;49404;50.472;6.954;2023-07-09T02:41:40;26.40;58.00
53454;DHT22;49404;50.472;6.954;2023-07-09T02:44:07;26.40;58.00
53454;DHT22;49404;50.472;6.954;2023-07-09T02:46:33;26.40;58.00
53454;DHT22;49404;50.472;6.954;2023-07-09T02:49:00;26.40;58.00
53454;DHT22;49404;50.472;6.954;2023-07-09T02:51:27;26.40;58.10
53454;DHT22;49404;50.472;6.954;2023-07-09T02:53:56;26.40;58.10
53454;DHT22;49404;50.472;6.954;2023-07-09T02:56:23;26.40;58.10
53454;DHT22;49404;50.472;6.954;2023-07-09T02:58:50;26.40;58.10
53454;DHT22;49404;50.472;6.954;2023-07-09T03:01:17;26.40;58.10
53454;DHT22;49404;50.472;6.954;2023-07-09T03:03:43;26.40;58.70
53454;DHT22;49404;50.472;6.954;2023-07-09T03:06:10;26.40;58.10
53454;DHT22;49404;50.472;6.954;2023-07-09T03:08:36;26.40;58.10
53454;DHT22;49404;50.472;6.954;2023-07-09T03:11:12;26.40;58.20
53454;DHT22;49404;50.472;6.954;2023-07-09T03:13:38;26.40;58.10
53454;DHT22;49404;50.472;6.954;2023-07-09T03:16:05;26.40;58.10
53454;DHT22;49404;50.472;6.954;2023-07-09T03:18:31;26.40;58.20
53454;DHT22;49404;50.472;6.954;2023-07-09T03:20:57;26.40;58.30
53454;DHT22;49404;50.472;6.954;2023-07-09T03:23:24;26.40;58.20
53454;DHT22;49404;50.472;6.954;2023-07-09T03:25:50;26.40;58.30
53454;DHT22;49404;50.472;6.954;2023-07-09T03:28:16;26.30;58.30
53454;DHT22;49404;50.472;6.954;2023-07-09T03:30:44;26.30;58.20
53454;DHT22;49404;50.472;6.954;2023-07-09T03:33:12;26.40;58.20
53454;DHT22;49404;50.472;6.954;2023-07-09T03:35:38;26.30;58.10
53454;DHT22;49404;50.472;6.954;2023-07-09T03:38:08;26.30;58.20
53454;DHT22;49404;50.472;6.954;2023-07-09T03:40:36;26.30;58.20
53454;DHT22;49404;50.472;6.954;2023-07-09T03:43:06;26.30;58.10
53454;DHT22;49404;50.472;6.954;2023-07-09T03:45:34;26.30;58.10
53454;DHT22;49404;50.472;6.954;2023-07-09T03:48:01;26.30;58.20
53454;DHT22;49404;50.472;6.954;2023-07-09T03:50:27;26.30;58.20
53454;DHT22;49404;50.472;6.954;2023-07-09T03:52:53;26.30;58.20
53454;DHT22;49404;50.472;6.954;2023-07-09T03:55:19;26.30;58.20
53454;DHT22;49404;50.472;6.954;2023-07-09T03:57:45;26.30;58.20
53454;DHT22;49404;50.472;6.954;2023-07-09T04:00:11;26.30;58.10
53454;DHT22;49404;50.472;6.954;2023-07-09T04:02:39;26.30;58.10
53454;DHT22;49404;50.472;6.954;2023-07-09T04:05:06;26.30;58.10
53454;DHT22;49404;50.472;6.954;2023-07-09T04:07:36;26.30;58.20
53454;DHT22;49404;50.472;6.954;2023-07-09T04:10:03;26.30;58.20
53454;DHT22;49404;50.472;6.954;2023-07-09T04:12:29;26.30;58.20
53454;DHT22;49404;50.472;6.954;2023-07-09T04:14:55;26.30;58.20
53454;DHT22;49404;50.472;6.954;2023-07-09T04:17:21;26.30;58.20
53454;DHT22;49404;50.472;6.954;2023-07-09T04:19:50;26.30;58.30
53454;DHT22;49404;50.472;6.954;2023-07-09T04:22:17;26.30;58.30
53454;DHT22;49404;50.472;6.954;2023-07-09T04:24:44;26.30;58.20
53454;DHT22;49404;50.472;6.954;2023-07-09T04:27:10;26.30;58.30
53454;DHT22;49404;50.472;6.954;2023-07-09T04:29:36;26.30;58.20
53454;DHT22;49404;50.472;6.954;2023-07-09T04:32:08;26.30;58.20
53454;DHT22;49404;50.472;6.954;2023-07-09T04:34:37;26.30;58.30
53454;DHT22;49404;50.472;6.954;2023-07-09T04:37:07;26.30;58.30
53454;DHT22;49404;50.472;6.954;2023-07-09T04:39:33;26.30;58.30
53454;DHT22;49404;50.472;6.954;2023-07-09T04:41:59;26.30;58.30
53454;DHT22;49404;50.472;6.954;2023-07-09T04:44:25;26.30;58.30
53454;DHT22;49404;50.472;6.954;2023-07-09T04:46:51;26.30;58.30
53454;DHT22;49404;50.472;6.954;2023-07-09T04:49:17;26.30;58.40
53454;DHT22;49404;50.472;6.954;2023-07-09T04:51:43;26.30;58.40
53454;DHT22;49404;50.472;6.954;2023-07-09T04:54:09;26.30;58.40
53454;DHT22;49404;50.472;6.954;2023-07-09T04:56:35;26.30;58.50
53454;DHT22;49404;50.472;6.954;2023-07-09T04:59:03;26.30;58.60
53454;DHT22;49404;50.472;6.954;2023-07-09T05:01:29;26.30;58.50
53454;DHT22;49404;50.472;6.954;2023-07-09T05:03:55;26.30;58.50
53454;DHT22;49404;50.472;6.954;2023-07-09T05:06:22;26.30;58.50
53454;DHT22;49404;50.472;6.954;2023-07-09T05:08:48;26.30;58.50
53454;DHT22;49404;50.472;6.954;2023-07-09T05:11:14;26.30;58.50
53454;DHT22;49404;50.472;6.954;2023-07-09T05:13:41;26.30;58.50
53454;DHT22;49404;50.472;6.954;2023-07-09T05:16:07;26.30;58.60
53454;DHT22;49404;50.472;6.954;2023-07-09T05:18:33;26.20;58.60
53454;DHT22;49404;50.472;6.954;2023-07-09T05:20:59;26.30;58.60
53454;DHT22;49404;50.472;6.954;2023-07-09T05:23:26;26.30;58.60
53454;DHT22;49404;50.472;6.954;2023-07-09T05:25:59;26.30;58.60
53454;DHT22;49404;50.472;6.954;2023-07-09T05:28:25;26.30;58.60
53454;DHT22;49404;50.472;6.954;2023-07-09T05:30:52;26.30;58.60
53454;DHT22;49404;50.472;6.954;2023-07-09T05:33:18;26.30;58.60
53454;DHT22;49404;50.472;6.954;2023-07-09T05:35:45;26.30;58.60
53454;DHT22;49404;50.472;6.954;2023-07-09T05:38:12;26.30;58.70
53454;DHT22;49404;50.472;6.954;2023-07-09T05:40:39;26.30;58.60
53454;DHT22;49404;50.472;6.954;2023-07-09T05:43:05;26.30;58.80
53454;DHT22;49404;50.472;6.954;2023-07-09T05:45:32;26.30;58.80
53454;DHT22;49404;50.472;6.954;2023-07-09T05:47:59;26.30;58.90
53454;DHT22;49404;50.472;6.954;2023-07-09T05:50:25;26.30;59.00
53454;DHT22;49404;50.472;6.954;2023-07-09T05:52:51;26.30;59.00
53454;DHT22;49404;50.472;6.954;2023-07-09T05:55:18;26.30;58.90
53454;DHT22;49404;50.472;6.954;2023-07-09T05:57:44;26.30;59.00
53454;DHT22;49404;50.472;6.954;2023-07-09T06:00:10;26.30;58.90
53454;DHT22;49404;50.472;6.954;2023-07-09T06:02:37;26.30;59.10
53454;DHT22;49404;50.472;6.954;2023-07-09T06:05:04;26.30;59.10
53454;DHT22;49404;50.472;6.954;2023-07-09T06:07:30;26.30;59.10
53454;DHT22;49404;50.472;6.954;2023-07-09T06:09:56;26.30;59.10
53454;DHT22;49404;50.472;6.954;2023-07-09T06:12:23;26.30;59.10
53454;DHT22;49404;50.472;6.954;2023-07-09T06:14:49;26.30;59.20
53454;DHT22;49404;50.472;6.954;2023-07-09T06:17:15;26.30;59.20
53454;DHT22;49404;50.472;6.954;2023-07-09T06:19:41;26.30;59.20
53454;DHT22;49404;50.472;6.954;2023-07-09T06:22:07;26.30;59.20
53454;DHT22;49404;50.472;6.954;2023-07-09T06:24:32;26.30;59.20
53454;DHT22;49404;50.472;6.954;2023-07-09T06:26:58;26.30;59.80
53454;DHT22;49404;50.472;6.954;2023-07-09T06:29:25;26.30;59.30
53454;DHT22;49404;50.472;6.954;2023-07-09T06:31:51;26.30;59.40
53454;DHT22;49404;50.472;6.954;2023-07-09T06:34:17;26.30;59.40
53454;DHT22;49404;50.472;6.954;2023-07-09T06:36:43;26.30;59.60
53454;DHT22;49404;50.472;6.954;2023-07-09T06:39:09;26.20;59.50
53454;DHT22;49404;50.472;6.954;2023-07-09T06:41:36;26.30;59.60
53454;DHT22;49404;50.472;6.954;2023-07-09T06:44:08;26.30;59.60
53454;DHT22;49404;50.472;6.954;2023-07-09T06:49:02;26.30;59.10
53454;DHT22;49404;50.472;6.954;2023-07-09T06:51:31;26.30;59.60
53454;DHT22;49404;50.472;6.954;2023-07-09T06:53:56;26.30;59.60
53454;DHT22;49404;50.472;6.954;2023-07-09T06:56:23;26.30;59.60
53454;DHT22;49404;50.472;6.954;2023-07-09T06:58:49;26.30;59.60
53454;DHT22;49404;50.472;6.954;2023-07-09T07:01:15;26.30;59.60
53454;DHT22;49404;50.472;6.954;2023-07-09T07:03:41;26.30;59.60
53454;DHT22;49404;50.472;6.954;2023-07-09T07:06:06;26.30;59.50
53454;DHT22;49404;50.472;6.954;2023-07-09T07:08:33;26.30;59.50
53454;DHT22;49404;50.472;6.954;2023-07-09T07:11:01;26.30;59.50
53454;DHT22;49404;50.472;6.954;2023-07-09T07:13:32;26.30;59.50
53454;DHT22;49404;50.472;6.954;2023-07-09T07:15:59;26.30;59.40
53454;DHT22;49404;50.472;6.954;2023-07-09T07:18:25;26.30;59.40
53454;DHT22;49404;50.472;6.954;2023-07-09T07:20:51;26.30;59.50
53454;DHT22;49404;50.472;6.954;2023-07-09T07:23:17;26.30;59.50
53454;DHT22;49404;50.472;6.954;2023-07-09T07:25:45;26.30;59.60
53454;DHT22;49404;50.472;6.954;2023-07-09T07:28:11;26.30;59.50
53454;DHT22;49404;50.472;6.954;2023-07-09T07:30:37;26.30;59.50
53454;DHT22;49404;50.472;6.954;2023-07-09T07:33:03;26.30;59.50
53454;DHT22;49404;50.472;6.954;2023-07-09T07:35:29;26.30;59.50
53454;DHT22;49404;50.472;6.954;2023-07-09T07:37:54;26.30;59.50
53454;DHT22;49404;50.472;6.954;2023-07-09T07:40:21;26.30;59.50
53454;DHT22;49404;50.472;6.954;2023-07-09T07:42:47;26.30;59.90
53454;DHT22;49404;50.472;6.954;2023-07-09T07:45:13;26.40;59.80
53454;DHT22;49404;50.472;6.954;2023-07-09T07:47:39;26.40;59.80
53454;DHT22;49404;50.472;6.954;2023-07-09T07:50:06;26.30;59.80
53454;DHT22;49404;50.472;6.954;2023-07-09T07:52:33;26.40;60.00
53454;DHT22;49404;50.472;6.954;2023-07-09T07:55:07;26.40;60.10
53454;DHT22;49404;50.472;6.954;2023-07-09T07:57:33;26.40;60.20
53454;DHT22;49404;50.472;6.954;2023-07-09T07:59:59;26.40;60.20
53454;DHT22;49404;50.472;6.954;2023-07-09T08:02:26;26.40;60.20
53454;DHT22;49404;50.472;6.954;2023-07-09T08:04:52;26.40;60.30
53454;DHT22;49404;50.472;6.954;2023-07-09T08:07:19;26.40;60.20
53454;DHT22;49404;50.472;6.954;2023-07-09T08:09:46;26.50;60.40
53454;DHT22;49404;50.472;6.954;2023-07-09T08:12:14;26.50;60.40
53454;DHT22;49404;50.472;6.954;2023-07-09T08:14:42;26.50;60.40
53454;DHT22;49404;50.472;6.954;2023-07-09T08:17:11;26.50;60.50
53454;DHT22;49404;50.472;6.954;2023-07-09T08:19:51;26.50;60.50
53454;DHT22;49404;50.472;6.954;2023-07-09T08:22:19;26.50;60.50
53454;DHT22;49404;50.472;6.954;2023-07-09T08:25:03;26.50;60.40
53454;DHT22;49404;50.472;6.954;2023-07-09T08:27:37;26.50;60.40
53454;DHT22;49404;50.472;6.954;2023-07-09T08:30:03;26.50;60.40
53454;DHT22;49404;50.472;6.954;2023-07-09T08:32:29;26.60;60.40
53454;DHT22;49404;50.472;6.954;2023-07-09T08:34:55;26.60;60.40
53454;DHT22;49404;50.472;6.954;2023-07-09T08:37:21;26.60;60.50
53454;DHT22;49404;50.472;6.954;2023-07-09T08:39:48;26.60;60.50
53454;DHT22;49404;50.472;6.954;2023-07-09T08:42:49;26.60;60.50
53454;DHT22;49404;50.472;6.954;2023-07-09T08:48:19;26.60;60.50
53454;DHT22;49404;50.472;6.954;2023-07-09T08:50:53;26.60;60.60
53454;DHT22;49404;50.472;6.954;2023-07-09T08:53:25;26.60;60.60
53454;DHT22;49404;50.472;6.954;2023-07-09T08:55:55;26.60;60.60
53454;DHT22;49404;50.472;6.954;2023-07-09T08:58:27;26.60;60.60
53454;DHT22;49404;50.472;6.954;2023-07-09T09:01:01;26.60;60.60
53454;DHT22;49404;50.472;6.954;2023-07-09T09:03:41;26.60;60.50
53454;DHT22;49404;50.472;6.954;2023-07-09T09:06:14;26.60;60.50
53454;DHT22;49404;50.472;6.954;2023-07-09T09:08:52;26.60;60.40
53454;DHT22;49404;50.472;6.954;2023-07-09T09:11:43;26.60;60.50
53454;DHT22;49404;50.472;6.954;2023-07-09T09:14:33;26.60;60.60
53454;DHT22;49404;50.472;6.954;2023-07-09T09:17:00;26.60;60.60
53454;DHT22;49404;50.472;6.954;2023-07-09T09:19:32;26.70;60.60
53454;DHT22;49404;50.472;6.954;2023-07-09T09:22:11;26.70;60.60
53454;DHT22;49404;50.472;6.954;2023-07-09T09:24:57;26.70;60.60
53454;DHT22;49404;50.472;6.954;2023-07-09T09:27:24;26.60;60.50
53454;DHT22;49404;50.472;6.954;2023-07-09T09:29:50;26.70;60.60
53454;DHT22;49404;50.472;6.954;2023-07-09T09:34:49;26.70;60.60
53454;DHT22;49404;50.472;6.954;2023-07-09T09:37:29;26.70;60.60
53454;DHT22;49404;50.472;6.954;2023-07-09T09:39:56;26.70;60.50
53454;DHT22;49404;50.472;6.954;2023-07-09T09:42:24;26.70;60.50
53454;DHT22;49404;50.472;6.954;2023-07-09T09:44:53;26.70;60.40
53454;DHT22;49404;50.472;6.954;2023-07-09T09:47:19;26.70;60.50
53454;DHT22;49404;50.472;6.954;2023-07-09T09:49:44;26.70;60.30
53454;DHT22;49404;50.472;6.954;2023-07-09T09:52:13;26.70;60.40
53454;DHT22;49404;50.472;6.954;2023-07-09T09:54:41;26.70;60.30
53454;DHT22;49404;50.472;6.954;2023-07-09T09:57:23;26.80;60.40
53454;DHT22;49404;50.472;6.954;2023-07-09T09:59:50;26.80;61.10
53454;DHT22;49404;50.472;6.954;2023-07-09T10:02:23;26.60;60.50
53454;DHT22;49404;50.472;6.954;2023-07-09T10:04:50;26.50;59.20
53454;DHT22;49404;50.472;6.954;2023-07-09T10:07:39;26.30;58.60
53454;DHT22;49404;50.472;6.954;2023-07-09T10:10:20;26.20;58.30
53454;DHT22;49404;50.472;6.954;2023-07-09T10:13:09;26.00;58.60
53454;DHT22;49404;50.472;6.954;2023-07-09T10:16:00;26.00;58.00
53454;DHT22;49404;50.472;6.954;2023-07-09T10:19:22;25.80;58.30
53454;DHT22;49404;50.472;6.954;2023-07-09T10:22:10;25.70;57.90
53454;DHT22;49404;50.472;6.954;2023-07-09T10:30:19;25.40;58.00
53454;DHT22;49404;50.472;6.954;2023-07-09T10:33:08;25.30;58.50
53454;DHT22;49404;50.472;6.954;2023-07-09T10:38:34;25.10;58.40
53454;DHT22;49404;50.472;6.954;2023-07-09T10:41:07;25.00;58.40
53454;DHT22;49404;50.472;6.954;2023-07-09T10:50:32;24.90;57.80
53454;DHT22;49404;50.472;6.954;2023-07-09T10:53:14;24.90;57.90
53454;DHT22;49404;50.472;6.954;2023-07-09T10:55:59;24.90;58.10
53454;DHT22;49404;50.472;6.954;2023-07-09T11:01:14;24.90;57.80
53454;DHT22;49404;50.472;6.954;2023-07-09T11:03:52;24.80;57.80
53454;DHT22;49404;50.472;6.954;2023-07-09T11:06:34;24.90;57.80
53454;DHT22;49404;50.472;6.954;2023-07-09T11:11:43;24.80;57.40
53454;DHT22;49404;50.472;6.954;2023-07-09T11:14:27;24.80;57.80
53454;DHT22;49404;50.472;6.954;2023-07-09T11:16:59;24.90;57.50
53454;DHT22;49404;50.472;6.954;2023-07-09T11:19:27;24.80;57.50
53454;DHT22;49404;50.472;6.954;2023-07-09T11:22:02;24.80;57.30
53454;DHT22;49404;50.472;6.954;2023-07-09T11:27:51;24.80;57.20
53454;DHT22;49404;50.472;6.954;2023-07-09T11:30:21;24.80;57.20
53454;DHT22;49404;50.472;6.954;2023-07-09T11:32:59;24.80;57.20
53454;DHT22;49404;50.472;6.954;2023-07-09T11:35:48;24.80;57.20
53454;DHT22;49404;50.472;6.954;2023-07-09T11:38:40;24.70;57.00
53454;DHT22;49404;50.472;6.954;2023-07-09T11:45:14;25.00;57.70
53454;DHT22;49404;50.472;6.954;2023-07-09T11:50:38;25.40;57.80
53454;DHT22;49404;50.472;6.954;2023-07-09T11:53:40;25.50;57.60
53454;DHT22;49404;50.472;6.954;2023-07-09T11:56:18;25.70;57.60
53454;DHT22;49404;50.472;6.954;2023-07-09T11:58:52;25.70;57.70
53454;DHT22;49404;50.472;6.954;2023-07-09T12:01:30;25.80;57.70
53454;DHT22;49404;50.472;6.954;2023-07-09T12:04:00;25.80;57.60
53454;DHT22;49404;50.472;6.954;2023-07-09T12:06:29;25.90;57.90
53454;DHT22;49404;50.472;6.954;2023-07-09T12:08:57;25.90;58.00
53454;DHT22;49404;50.472;6.954;2023-07-09T12:11:27;26.10;58.20
53454;DHT22;49404;50.472;6.954;2023-07-09T12:14:04;26.10;58.70
53454;DHT22;49404;50.472;6.954;2023-07-09T12:16:44;26.20;59.00
53454;DHT22;49404;50.472;6.954;2023-07-09T12:19:20;26.20;59.40
53454;DHT22;49404;50.472;6.954;2023-07-09T12:21:49;26.20;59.60
53454;DHT22;49404;50.472;6.954;2023-07-09T12:24:41;26.30;59.80
53454;DHT22;49404;50.472;6.954;2023-07-09T12:27:22;26.30;59.60
53454;DHT22;49404;50.472;6.954;2023-07-09T12:30:09;26.30;59.20
53454;DHT22;49404;50.472;6.954;2023-07-09T12:33:12;26.30;59.80
53454;DHT22;49404;50.472;6.954;2023-07-09T12:35:48;26.30;59.70
53454;DHT22;49404;50.472;6.954;2023-07-09T12:38:23;26.30;59.50
53454;DHT22;49404;50.472;6.954;2023-07-09T12:40:59;26.40;59.50
53454;DHT22;49404;50.472;6.954;2023-07-09T12:43:32;26.30;59.20
53454;DHT22;49404;50.472;6.954;2023-07-09T12:46:01;26.40;59.30
53454;DHT22;49404;50.472;6.954;2023-07-09T12:48:29;26.40;59.20
53454;DHT22;49404;50.472;6.954;2023-07-09T12:50:58;26.40;59.00
53454;DHT22;49404;50.472;6.954;2023-07-09T12:53:27;26.40;58.90
53454;DHT22;49404;50.472;6.954;2023-07-09T12:55:59;26.40;58.80
53454;DHT22;49404;50.472;6.954;2023-07-09T12:58:30;26.40;58.80
53454;DHT22;49404;50.472;6.954;2023-07-09T13:00:57;26.50;58.80
53454;DHT22;49404;50.472;6.954;2023-07-09T13:03:28;26.50;58.80
53454;DHT22;49404;50.472;6.954;2023-07-09T13:06:00;26.50;58.80
53454;DHT22;49404;50.472;6.954;2023-07-09T13:08:32;26.50;58.70
53454;DHT22;49404;50.472;6.954;2023-07-09T13:10:59;26.50;58.60
53454;DHT22;49404;50.472;6.954;2023-07-09T13:13:26;26.50;58.60
53454;DHT22;49404;50.472;6.954;2023-07-09T13:15:56;26.60;58.60
53454;DHT22;49404;50.472;6.954;2023-07-09T13:18:24;26.60;58.70
53454;DHT22;49404;50.472;6.954;2023-07-09T13:20:52;26.60;58.60
53454;DHT22;49404;50.472;6.954;2023-07-09T13:25:47;26.60;58.50
53454;DHT22;49404;50.472;6.954;2023-07-09T13:28:30;26.60;58.50
53454;DHT22;49404;50.472;6.954;2023-07-09T13:31:13;26.60;58.50
53454;DHT22;49404;50.472;6.954;2023-07-09T13:33:58;26.60;58.60
53454;DHT22;49404;50.472;6.954;2023-07-09T13:36:25;26.70;58.70
53454;DHT22;49404;50.472;6.954;2023-07-09T13:38:51;26.70;58.80
53454;DHT22;49404;50.472;6.954;2023-07-09T13:41:18;26.70;58.80
53454;DHT22;49404;50.472;6.954;2023-07-09T13:43:48;26.70;59.00
53454;DHT22;49404;50.472;6.954;2023-07-09T13:46:14;26.70;59.70
53454;DHT22;49404;50.472;6.954;2023-07-09T13:48:42;26.60;58.70
53454;DHT22;49404;50.472;6.954;2023-07-09T13:51:20;26.50;58.80
53454;DHT22;49404;50.472;6.954;2023-07-09T13:53:48;26.50;58.90
53454;DHT22;49404;50.472;6.954;2023-07-09T13:56:14;26.60;59.10
53454;DHT22;49404;50.472;6.954;2023-07-09T13:58:40;26.60;59.10
53454;DHT22;49404;50.472;6.954;2023-07-09T14:01:14;26.60;59.40
53454;DHT22;49404;50.472;6.954;2023-07-09T14:03:41;26.70;59.80
53454;DHT22;49404;50.472;6.954;2023-07-09T14:06:12;26.50;58.20
53454;DHT22;49404;50.472;6.954;2023-07-09T14:08:38;26.30;57.10
53454;DHT22;49404;50.472;6.954;2023-07-09T14:11:10;26.20;56.40
53454;DHT22;49404;50.472;6.954;2023-07-09T14:13:53;26.00;56.00
53454;DHT22;49404;50.472;6.954;2023-07-09T14:16:31;25.90;56.10
53454;DHT22;49404;50.472;6.954;2023-07-09T14:18:57;25.90;56.10
53454;DHT22;49404;50.472;6.954;2023-07-09T14:21:34;25.70;55.90
53454;DHT22;49404;50.472;6.954;2023-07-09T14:24:20;25.60;55.80
53454;DHT22;49404;50.472;6.954;2023-07-09T14:26:55;25.50;55.70
53454;DHT22;49404;50.472;6.954;2023-07-09T14:29:22;25.50;55.60
53454;DHT22;49404;50.472;6.954;2023-07-09T14:31:48;25.50;55.60
53454;DHT22;49404;50.472;6.954;2023-07-09T14:34:22;25.50;55.50
53454;DHT22;49404;50.472;6.954;2023-07-09T14:36:49;25.40;55.40
53454;DHT22;49404;50.472;6.954;2023-07-09T14:39:16;25.30;55.30
53454;DHT22;49404;50.472;6.954;2023-07-09T14:41:43;25.30;55.30
53454;DHT22;49404;50.472;6.954;2023-07-09T14:46:51;25.50;55.90
53454;DHT22;49404;50.472;6.954;2023-07-09T14:49:18;25.70;56.90
53454;DHT22;49404;50.472;6.954;2023-07-09T14:51:45;25.60;55.90
53454;DHT22;49404;50.472;6.954;2023-07-09T14:54:21;25.50;55.50
53454;DHT22;49404;50.472;6.954;2023-07-09T14:56:50;25.50;55.30
53454;DHT22;49404;50.472;6.954;2023-07-09T14:59:18;25.40;55.10
53454;DHT22;49404;50.472;6.954;2023-07-09T15:01:44;25.40;55.20
53454;DHT22;49404;50.472;6.954;2023-07-09T15:06:53;25.20;55.10
53454;DHT22;49404;50.472;6.954;2023-07-09T15:09:21;25.20;55.10
53454;DHT22;49404;50.472;6.954;2023-07-09T15:11:57;25.10;54.90
53454;DHT22;49404;50.472;6.954;2023-07-09T15:14:35;25.10;55.00
53454;DHT22;49404;50.472;6.954;2023-07-09T15:17:18;25.10;54.90
53454;DHT22;49404;50.472;6.954;2023-07-09T15:19:44;25.00;54.90
53454;DHT22;49404;50.472;6.954;2023-07-09T15:22:21;24.90;54.90
53454;DHT22;49404;50.472;6.954;2023-07-09T15:24:58;24.90;54.90
53454;DHT22;49404;50.472;6.954;2023-07-09T15:27:24;24.90;54.90
53454;DHT22;49404;50.472;6.954;2023-07-09T15:29:52;24.90;54.80
53454;DHT22;49404;50.472;6.954;2023-07-09T15:32:19;24.80;54.70
53454;DHT22;49404;50.472;6.954;2023-07-09T15:34:45;24.80;54.60
53454;DHT22;49404;50.472;6.954;2023-07-09T15:37:13;24.80;54.60
53454;DHT22;49404;50.472;6.954;2023-07-09T15:39:40;24.80;54.60
53454;DHT22;49404;50.472;6.954;2023-07-09T15:42:13;24.80;54.60
53454;DHT22;49404;50.472;6.954;2023-07-09T15:44:40;24.70;54.70
53454;DHT22;49404;50.472;6.954;2023-07-09T15:47:17;24.80;54.60
53454;DHT22;49404;50.472;6.954;2023-07-09T15:49:45;24.70;54.60
53454;DHT22;49404;50.472;6.954;2023-07-09T15:52:11;24.70;54.50
53454;DHT22;49404;50.472;6.954;2023-07-09T15:54:40;24.70;54.50
53454;DHT22;49404;50.472;6.954;2023-07-09T15:57:13;24.70;54.50
53454;DHT22;49404;50.472;6.954;2023-07-09T15:59:40;24.70;54.50
53454;DHT22;49404;50.472;6.954;2023-07-09T16:02:14;24.70;54.50
53454;DHT22;49404;50.472;6.954;2023-07-09T16:04:44;24.70;54.50
53454;DHT22;49404;50.472;6.954;2023-07-09T16:07:10;24.70;54.40
53454;DHT22;49404;50.472;6.954;2023-07-09T16:09:37;24.70;54.50
53454;DHT22;49404;50.472;6.954;2023-07-09T16:12:07;24.60;54.50
53454;DHT22;49404;50.472;6.954;2023-07-09T16:14:34;24.60;54.60
53454;DHT22;49404;50.472;6.954;2023-07-09T16:17:01;24.60;55.80
53454;DHT22;49404;50.472;6.954;2023-07-09T16:19:29;24.80;58.10
53454;DHT22;49404;50.472;6.954;2023-07-09T16:22:04;25.00;58.80
53454;DHT22;49404;50.472;6.954;2023-07-09T16:24:32;25.10;59.60
53454;DHT22;49404;50.472;6.954;2023-07-09T16:27:01;25.20;59.80
53454;DHT22;49404;50.472;6.954;2023-07-09T16:29:29;25.30;59.80
53454;DHT22;49404;50.472;6.954;2023-07-09T16:31:57;25.20;57.50
53454;DHT22;49404;50.472;6.954;2023-07-09T16:34:24;25.10;56.40
53454;DHT22;49404;50.472;6.954;2023-07-09T16:36:51;24.90;55.90
53454;DHT22;49404;50.472;6.954;2023-07-09T16:39:47;24.90;55.80
53454;DHT22;49404;50.472;6.954;2023-07-09T16:42:14;24.90;55.60